IE-0045 weather

Maganey Airstrip
County Kildare, Ireland

Public forecast

Using degrees Celsius for public forecast. Weather courtesy of forecast.io.

METAR (pilot weather report)

Closest report is Casement Air Base, 29.7 nm (55.0 km) NE. Retrieved 2019/06/20 08:30 UTC (0 seconds ago):

EIME 200830Z 27013KT 9999 FEW012 SCT019 12/08 Q1010

TAF (pilot weather forecast)

Closest forecast is Dublin Airport, 39.4 nm (72.9 km) NE. Retrieved 2019/06/20 06:09 UTC (2 hours ago):

TAF EIDW 200500Z 2006/2106 26010KT 9999 FEW015 TEMPO 2008/2021 SCT018CB PROB30 TEMPO 2014/2017 SHRA TEMPO 2019/2022 VRB03KT BECMG 2021/2023 29006KT BECMG 2101/2103 26008KT